Home Code Reference WordPress Repository Plugins Metar ARFOR WordPress Shortcode Example

ARFOR WordPress Shortcode Example

This page is used to demonstrate the ARFOR feature of the Metar WordPress plugin.

BANKSTOWN YSBK

TAF AMD YSBK 201101Z 2011/2024
VRB03KT 9999 -SHRA SCT040
FM201300 19010KT 9999 -SHRA SCT010 BKN015
FM201800 21008KT 9999 -SHRA SCT010 BKN020
INTER 2011/2013 5000 SHRA BKN020
TEMPO 2013/2018 4000 SHRA BKN010
INTER 2018/2024 5000 SHRA BKN010
RMK
T 20 17 16 14 Q 1012 1013 1013 1014

SPECI YSBK 201300Z AUTO 23001KT 9999 // BKN009 OVC100 19/18 Q1014
RMK RF00.2/009.0

BATHURST YBTH

TAF YBTH 201252Z 2014/2102
23005KT 9999 -SHRA SCT040
BECMG 2022/2024 23008KT CAVOK
RMK
T 13 10 09 13 Q 1016 1015 1016 1017

METAR YBTH 201300Z AUTO 23007KT 9999 // NCD 13/12 Q1017 RMK
RF00.0/000.4

CAMDEN YSCN

TAF AMD YSCN 201102Z 2011/2024
VRB03KT 9999 -SHRA SCT040
FM201300 18008KT 9999 -SHRA SCT010 BKN015
FM201800 VRB03KT 9999 -SHRA SCT010 BKN020
INTER 2011/2013 5000 SHRA BKN020
TEMPO 2013/2018 4000 SHRA BKN010
INTER 2018/2024 5000 SHRA BKN010
RMK
T 19 17 15 14 Q 1014 1013 1013 1015

METAR YSCN 201300Z AUTO 00000KT 9999 // NCD 18/18 Q1014 RMK
RF00.0/000.8

* CANBERRA YSCB

TAF AMD YSCB 201128Z 2011/2112
33012KT 9999 -SHRA SCT030 SCT050
FM201200 13006KT 9999 -SHRA SCT018 BKN025
BECMG 2022/2023 16010KT 9999 SCT040
BECMG 2102/2104 31010KT CAVOK
TEMPO 2018/2022 9999 BKN018
RMK
T 14 11 09 09 Q 1015 1015 1014 1016

METAR YSCB 201300Z AUTO 36006KT 330V040 9999 // NCD 12/08 Q1015
RMK RF00.0/009.4

COOMA YCOM

TAF YCOM 201252Z 2014/2108
19010KT 9999 -SHRA BKN008
BECMG 2021/2023 20008KT 9999 NSW SCT030
RMK
T 07 05 05 08 Q 1016 1015 1016 1017

SPECI YCOM 201300Z AUTO 19011KT 9999 // BKN005 OVC010 07/07 Q1017
RMK RF00.0/005.6

COOTAMUNDRA YCTM

Nil current TAF.

METAR/SPECI observations are not generated for this location.

COWRA YCWR

Nil current TAF.

METAR YCWR 201300Z AUTO 18004KT //// // ////// 13/08 Q1017 RMK
RF00.0/008.0

FORBES YFBS

Nil current TAF.

METAR YFBS 201300Z AUTO 18006KT //// // ////// 14/07 Q1017 RMK
RF00.0/000.2

GOULBURN YGLB

TAF AMD YGLB 200614Z 2006/2008
32014KT 9999 -SHRA SCT025 SCT040
TEMPO 2006/2008 VRB25G40KT 3000 TSRA SCT012 BKN020 SCT045CB
RMK
T 17 Q 1012

SPECI YGLB 201302Z AUTO 17001KT 9999 // BKN017 OVC057 OVC069 13/10
Q1016 RMK RF00.0/004.8 PRESENT WEATHER SENSOR US

HOLSWORTHY YSHW

TAF AMD YSHW 201101Z 2011/2024
VRB03KT 9999 -SHRA SCT040
FM201300 19010KT 9999 -SHRA SCT010 BKN015
FM201800 21008KT 9999 -SHRA SCT010 BKN020
INTER 2011/2013 5000 SHRA BKN020
TEMPO 2013/2018 4000 SHRA BKN010
INTER 2018/2024 5000 SHRA BKN010
RMK
T 19 16 15 14 Q 1014 1013 1013 1014

METAR YSHW 201300Z AUTO 14004KT 9999 // SCT100 18/17 Q1014 RMK
RF00.0/005.4

LORD HOWE ISLAND YLHI

TAF AMD YLHI 201202Z 2012/2112
06014KT 7000 -SHRA SCT010 BKN025
TEMPO 2012/2112 5000 SHRA BKN010
RMK
T 20 19 19 20 Q 1016 1015 1014 1016

METAR YLHI 201300Z AUTO 05010KT 7000 // SCT009 SCT013 OVC028 20/19 Q1016
RMK RF00.0/000.6

MALLACOOTA YMCO

Nil current TAF.

METAR YMCO 201300Z AUTO 26007KT //// // ////// 11/10 Q1017 RMK
RF00.0/020.6

MERIMBULA YMER

TAF AMD YMER 201300Z 2014/2102
24005KT 9999 -SHRA SCT025 BKN035
BECMG 2023/2101 24010KT 9999 SCT040
TEMPO 2014/2024 3000 RA BKN015
RMK FM201400 MOD TURB BLW 5000FT TILL202200
T 11 10 10 15 Q 1016 1015 1016 1016

METAR YMER 201300Z AUTO 22004KT 9999 // OVC045 12/11 Q1016 RMK
RF00.0/016.6

MORUYA YMRY

TAF AMD YMRY 201259Z 2014/2102
23008KT 9999 -RA BKN020
BECMG 2022/2024 20010KT 9999 SCT030
TEMPO 2014/2020 3000 RA BKN008
RMK FM201400 MOD TURB BLW 5000FT TILL201800
T 12 11 11 15 Q 1015 1014 1016 1017

METAR YMRY 201300Z AUTO 25006KT 9999 // OVC028 13/12 Q1016 RMK
RF00.2/014.8

NORFOLK ISLAND YSNF

TAF AMD YSNF 201215Z 2012/2112
06015G25KT 9000 -SHRA BKN030
BECMG 2016/2018 06015G25KT 8000 -SHRA SCT008 BKN025
INTER 2012/2014 5000 SHRA BKN015
TEMPO 2014/2102 3000 SHRA BKN008
RMK FM201200 MOD TURB BLW 5000FT
T 19 18 18 19 Q 1022 1020 1020 1022

METAR YSNF 201300Z AUTO 06012KT 8000 // SCT008 BKN021 BKN025 19/18
Q1021 RMK RF00.0/000.0

* NOWRA YSNW

YSNW TAF AMD YSNW 201057Z 2012/2024
18012KT 9999 -RA BKN015 BKN030
BECMG 2019/2021 19010KT 9999 SCT015 BKN025
INTER 2012/2018 4000 RA BKN008
RMK
T 14 13 12 13 Q 1014 1014 1014 1016

SPECI YSNW 201300Z AUTO 21005KT 9999 // OVC014 15/14 Q1014
RMK RF00.0/009.0

ORANGE YORG

TAF YORG 201252Z 2014/2102
22010KT 9999 -SHRA SCT020 BKN025
BECMG 2018/2020 21010KT CAVOK
TEMPO 2014/2017 BKN008
RMK
T 09 07 06 12 Q 1017 1015 1016 1017

METAR YORG 201300Z AUTO 21013KT 9999 // SCT009 10/08 Q1017 RMK
RF00.0/001.8

PARKES YPKS

TAF AMD YPKS 201152Z 2011/2014
20008KT CAVOK
RMK
T 15 12 Q 1017 1016

METAR YPKS 201300Z AUTO 19013KT 9999 // NCD 14/07 Q1016 RMK
RF00.0/000.0

RICHMOND (NSW) YSRI

TAF AMD YSRI 201118Z 2012/2112
17005KT 9999 -SHRA FEW015 BKN030
BECMG 2100/2102 12010KT 9999 SCT030
TEMPO 2012/2018 4000 SHRA BKN010
RMK
T 19 17 16 15 Q 1012 1012 1013 1015

METAR YSRI 201300Z AUTO 00000KT 9999 // SCT053 BKN100 18/18 Q1014
RMK RF00.0/002.0 PRESENT WEATHER SENSOR US

* SYDNEY YSSY

TAF AMD YSSY 201108Z 2012/2118
18010KT 9999 -SHRA SCT040
FM201300 18015G25KT 9999 -SHRA SCT010 BKN015
FM202000 20018KT 9999 -SHRA SCT010 BKN020
FM210200 19020KT 9999 SCT025
FM210800 16013KT 9999 SCT030
TEMPO 2012/2018 4000 SHRA BKN010
INTER 2018/2102 4000 SHRA BKN010
RMK FM201300 MOD TURB BLW 5000FT TILL210200
T 18 18 16 15 Q 1013 1012 1013 1015

METAR YSSY 201300Z 26004KT 9999 VCSH FEW022 BKN120 BKN140 20/18 Q1014
RMK RF00.0/021.0 wind estimated.

TEMORA YTEM

Nil current TAF.

METAR YTEM 201300Z AUTO 21004KT //// // ////// 07/06 Q1018 RMK
RF00.0/001.4

WAGGA WAGGA YSWG

TAF YSWG 201057Z 2012/2106
24008KT 9999 SCT025
FM201600 23006KT 9999 BKN025
BECMG 2023/2101 23010KT CAVOK
RMK
T 12 10 09 12 Q 1016 1015 1015 1016

METAR YSWG 201300Z AUTO 23007KT 9999 // NCD 08/05 Q1017 RMK
RF00.0/001.6

WOLLONGONG YWOL

TAF AMD YWOL 201214Z 2012/2102
20008KT 9999 -SHRA BKN020
BECMG 2022/2024 18012KT 9999 SCT030
TEMPO 2012/2018 3000 RA BKN010
RMK FM201200 MOD TURB BLW 5000FT TILL201500
T 19 14 13 13 Q 1015 1013 1013 1016

SPECI YWOL 201300Z AUTO 15004KT 9999 // OVC022 18/17 Q1014 RMK
RF00.0/000.2

YOUNG YYNG

TAF AMD YYNG 201015Z 2010/2014
28015G25KT 9999 -SHRA SCT040
BECMG 2010/2012 21008KT 9999 -SHRA SCT015 BKN020
RMK
T 14 09 Q 1016 1016

METAR YYNG 201300Z AUTO 34002KT 9999 // NCD 09/06 Q1017 RMK
RF00.0/007.2

* Note: The latest TTF automatically supersedes the TAF for the 3 hr validity of the TTF, unless otherwise specified in the TTF.